sensor_id;sensor_type;location;lat;lon;timestamp;P1;durP1;ratioP1;P2;durP2;ratioP2
54121;SDS011;40029;58.708;50.190;2022-11-04T00:02:16;5.60;;;3.80;;
54121;SDS011;40029;58.708;50.190;2022-11-04T00:04:48;4.20;;;3.15;;
54121;SDS011;40029;58.708;50.190;2022-11-04T00:07:19;3.28;;;2.38;;
54121;SDS011;40029;58.708;50.190;2022-11-04T00:10:08;4.72;;;2.95;;
54121;SDS011;40029;58.708;50.190;2022-11-04T00:12:39;7.75;;;4.57;;
54121;SDS011;40029;58.708;50.190;2022-11-04T00:15:10;5.82;;;3.88;;
54121;SDS011;40029;58.708;50.190;2022-11-04T00:17:59;5.97;;;3.85;;
54121;SDS011;40029;58.708;50.190;2022-11-04T00:20:30;4.72;;;2.88;;
54121;SDS011;40029;58.708;50.190;2022-11-04T00:23:19;3.95;;;2.25;;
54121;SDS011;40029;58.708;50.190;2022-11-04T00:26:09;6.78;;;2.63;;
54121;SDS011;40029;58.708;50.190;2022-11-04T00:28:58;3.65;;;2.42;;
54121;SDS011;40029;58.708;50.190;2022-11-04T00:31:29;3.00;;;2.05;;
54121;SDS011;40029;58.708;50.190;2022-11-04T00:34:18;5.22;;;3.53;;
54121;SDS011;40029;58.708;50.190;2022-11-04T00:36:49;8.20;;;4.13;;
54121;SDS011;40029;58.708;50.190;2022-11-04T00:39:20;4.07;;;2.45;;
54121;SDS011;40029;58.708;50.190;2022-11-04T00:41:51;4.03;;;2.40;;
54121;SDS011;40029;58.708;50.190;2022-11-04T00:44:22;3.72;;;2.60;;
54121;SDS011;40029;58.708;50.190;2022-11-04T00:46:53;3.40;;;2.40;;
54121;SDS011;40029;58.708;50.190;2022-11-04T00:49:24;5.20;;;2.80;;
54121;SDS011;40029;58.708;50.190;2022-11-04T00:51:55;4.60;;;2.60;;
54121;SDS011;40029;58.708;50.190;2022-11-04T00:54:26;4.97;;;3.00;;
54121;SDS011;40029;58.708;50.190;2022-11-04T00:56:57;3.60;;;2.50;;
54121;SDS011;40029;58.708;50.190;2022-11-04T00:59:28;3.65;;;2.30;;
54121;SDS011;40029;58.708;50.190;2022-11-04T01:01:59;4.35;;;2.40;;
54121;SDS011;40029;58.708;50.190;2022-11-04T01:04:30;4.82;;;2.85;;
54121;SDS011;40029;58.708;50.190;2022-11-04T01:07:01;8.45;;;5.07;;
54121;SDS011;40029;58.708;50.190;2022-11-04T01:09:33;9.52;;;5.20;;
54121;SDS011;40029;58.708;50.190;2022-11-04T01:12:04;6.30;;;3.88;;
54121;SDS011;40029;58.708;50.190;2022-11-04T01:14:35;4.10;;;2.53;;
54121;SDS011;40029;58.708;50.190;2022-11-04T01:17:06;5.28;;;3.20;;
54121;SDS011;40029;58.708;50.190;2022-11-04T01:19:37;5.22;;;2.70;;
54121;SDS011;40029;58.708;50.190;2022-11-04T01:22:08;4.25;;;2.13;;
54121;SDS011;40029;58.708;50.190;2022-11-04T01:24:39;5.65;;;2.90;;
54121;SDS011;40029;58.708;50.190;2022-11-04T01:27:10;4.45;;;2.70;;
54121;SDS011;40029;58.708;50.190;2022-11-04T01:29:41;6.45;;;3.03;;
54121;SDS011;40029;58.708;50.190;2022-11-04T01:32:12;4.85;;;2.88;;
54121;SDS011;40029;58.708;50.190;2022-11-04T01:34:44;4.72;;;2.70;;
54121;SDS011;40029;58.708;50.190;2022-11-04T01:37:16;3.63;;;2.92;;
54121;SDS011;40029;58.708;50.190;2022-11-04T01:39:47;3.67;;;2.35;;
54121;SDS011;40029;58.708;50.190;2022-11-04T01:42:20;3.47;;;2.15;;
54121;SDS011;40029;58.708;50.190;2022-11-04T01:50:00;4.15;;;2.80;;
54121;SDS011;40029;58.708;50.190;2022-11-04T01:52:37;4.32;;;2.40;;
54121;SDS011;40029;58.708;50.190;2022-11-04T01:55:19;4.65;;;2.20;;
54121;SDS011;40029;58.708;50.190;2022-11-04T01:57:55;4.68;;;2.42;;
54121;SDS011;40029;58.708;50.190;2022-11-04T02:00:40;5.93;;;3.95;;
54121;SDS011;40029;58.708;50.190;2022-11-04T02:03:19;7.38;;;3.50;;
54121;SDS011;40029;58.708;50.190;2022-11-04T02:06:01;9.05;;;4.72;;
54121;SDS011;40029;58.708;50.190;2022-11-04T02:08:33;6.93;;;3.45;;
54121;SDS011;40029;58.708;50.190;2022-11-04T02:11:05;6.55;;;3.10;;
54121;SDS011;40029;58.708;50.190;2022-11-04T02:13:36;6.78;;;3.53;;
54121;SDS011;40029;58.708;50.190;2022-11-04T02:38:09;10.07;;;5.38;;
54121;SDS011;40029;58.708;50.190;2022-11-04T02:46:39;13.38;;;4.65;;
54121;SDS011;40029;58.708;50.190;2022-11-04T02:49:32;7.77;;;3.83;;
54121;SDS011;40029;58.708;50.190;2022-11-04T02:52:10;12.80;;;6.43;;
54121;SDS011;40029;58.708;50.190;2022-11-04T02:57:25;14.13;;;6.10;;
54121;SDS011;40029;58.708;50.190;2022-11-04T03:05:24;12.63;;;5.30;;
54121;SDS011;40029;58.708;50.190;2022-11-04T03:08:02;14.23;;;6.53;;
54121;SDS011;40029;58.708;50.190;2022-11-04T03:10:44;9.60;;;5.78;;
54121;SDS011;40029;58.708;50.190;2022-11-04T03:13:25;11.57;;;5.70;;
54121;SDS011;40029;58.708;50.190;2022-11-04T03:16:05;10.88;;;5.55;;
54121;SDS011;40029;58.708;50.190;2022-11-04T03:21:40;10.23;;;6.05;;
54121;SDS011;40029;58.708;50.190;2022-11-04T03:24:19;7.63;;;4.70;;
54121;SDS011;40029;58.708;50.190;2022-11-04T03:29:33;7.07;;;3.75;;
54121;SDS011;40029;58.708;50.190;2022-11-04T03:32:23;10.73;;;4.10;;
54121;SDS011;40029;58.708;50.190;2022-11-04T03:34:56;13.82;;;6.00;;
54121;SDS011;40029;58.708;50.190;2022-11-04T03:37:27;16.13;;;7.47;;
54121;SDS011;40029;58.708;50.190;2022-11-04T03:39:58;15.88;;;8.07;;
54121;SDS011;40029;58.708;50.190;2022-11-04T03:42:29;15.60;;;6.97;;
54121;SDS011;40029;58.708;50.190;2022-11-04T03:45:04;19.38;;;9.00;;
54121;SDS011;40029;58.708;50.190;2022-11-04T03:47:35;14.57;;;7.40;;
54121;SDS011;40029;58.708;50.190;2022-11-04T03:50:11;15.50;;;4.95;;
54121;SDS011;40029;58.708;50.190;2022-11-04T03:52:44;8.98;;;5.65;;
54121;SDS011;40029;58.708;50.190;2022-11-04T03:55:15;14.05;;;5.85;;
54121;SDS011;40029;58.708;50.190;2022-11-04T03:57:57;13.85;;;5.75;;
54121;SDS011;40029;58.708;50.190;2022-11-04T04:00:47;15.43;;;5.30;;
54121;SDS011;40029;58.708;50.190;2022-11-04T04:03:25;13.48;;;6.40;;
54121;SDS011;40029;58.708;50.190;2022-11-04T04:06:06;9.65;;;4.88;;
54121;SDS011;40029;58.708;50.190;2022-11-04T04:08:46;8.32;;;3.85;;
54121;SDS011;40029;58.708;50.190;2022-11-04T04:14:26;14.77;;;5.63;;
54121;SDS011;40029;58.708;50.190;2022-11-04T04:19:51;12.93;;;6.53;;
54121;SDS011;40029;58.708;50.190;2022-11-04T04:22:34;13.85;;;5.57;;
54121;SDS011;40029;58.708;50.190;2022-11-04T04:25:10;12.00;;;5.60;;
54121;SDS011;40029;58.708;50.190;2022-11-04T04:28:03;10.13;;;5.57;;
54121;SDS011;40029;58.708;50.190;2022-11-04T04:30:35;15.10;;;8.18;;
54121;SDS011;40029;58.708;50.190;2022-11-04T04:33:11;23.25;;;7.97;;
54121;SDS011;40029;58.708;50.190;2022-11-04T04:35:46;23.75;;;10.38;;
54121;SDS011;40029;58.708;50.190;2022-11-04T04:38:24;27.33;;;11.65;;
54121;SDS011;40029;58.708;50.190;2022-11-04T04:41:22;28.85;;;11.82;;
54121;SDS011;40029;58.708;50.190;2022-11-04T04:44:20;23.05;;;10.70;;
54121;SDS011;40029;58.708;50.190;2022-11-04T04:47:20;15.75;;;6.90;;
54121;SDS011;40029;58.708;50.190;2022-11-04T04:49:55;14.73;;;6.88;;
54121;SDS011;40029;58.708;50.190;2022-11-04T04:52:34;15.50;;;8.20;;
54121;SDS011;40029;58.708;50.190;2022-11-04T04:55:12;20.83;;;10.88;;
54121;SDS011;40029;58.708;50.190;2022-11-04T04:57:43;24.45;;;10.30;;
54121;SDS011;40029;58.708;50.190;2022-11-04T05:00:16;21.25;;;9.48;;
54121;SDS011;40029;58.708;50.190;2022-11-04T05:02:49;11.45;;;6.22;;
54121;SDS011;40029;58.708;50.190;2022-11-04T05:05:20;12.18;;;5.78;;
54121;SDS011;40029;58.708;50.190;2022-11-04T05:07:51;10.23;;;5.60;;
54121;SDS011;40029;58.708;50.190;2022-11-04T05:10:22;9.13;;;5.22;;
54121;SDS011;40029;58.708;50.190;2022-11-04T05:12:53;7.93;;;4.10;;
54121;SDS011;40029;58.708;50.190;2022-11-04T05:15:42;10.35;;;4.55;;
54121;SDS011;40029;58.708;50.190;2022-11-04T05:18:13;8.93;;;4.85;;
54121;SDS011;40029;58.708;50.190;2022-11-04T05:20:44;12.23;;;5.72;;
54121;SDS011;40029;58.708;50.190;2022-11-04T05:23:15;13.82;;;5.47;;
54121;SDS011;40029;58.708;50.190;2022-11-04T05:25:46;8.20;;;5.00;;
54121;SDS011;40029;58.708;50.190;2022-11-04T05:28:17;12.00;;;5.82;;
54121;SDS011;40029;58.708;50.190;2022-11-04T05:30:48;11.27;;;5.82;;
54121;SDS011;40029;58.708;50.190;2022-11-04T05:33:19;12.80;;;6.18;;
54121;SDS011;40029;58.708;50.190;2022-11-04T05:35:50;12.30;;;5.95;;
54121;SDS011;40029;58.708;50.190;2022-11-04T05:38:21;10.65;;;5.75;;
54121;SDS011;40029;58.708;50.190;2022-11-04T05:40:52;11.30;;;5.28;;
54121;SDS011;40029;58.708;50.190;2022-11-04T05:43:23;13.55;;;5.55;;
54121;SDS011;40029;58.708;50.190;2022-11-04T05:45:54;14.75;;;5.60;;
54121;SDS011;40029;58.708;50.190;2022-11-04T05:48:27;17.73;;;7.15;;
54121;SDS011;40029;58.708;50.190;2022-11-04T05:50:58;13.25;;;8.20;;
54121;SDS011;40029;58.708;50.190;2022-11-04T05:53:30;16.48;;;7.32;;
54121;SDS011;40029;58.708;50.190;2022-11-04T05:56:00;15.75;;;8.30;;
54121;SDS011;40029;58.708;50.190;2022-11-04T05:58:31;36.92;;;16.02;;
54121;SDS011;40029;58.708;50.190;2022-11-04T06:01:10;25.48;;;10.65;;
54121;SDS011;40029;58.708;50.190;2022-11-04T06:03:42;15.13;;;6.28;;
54121;SDS011;40029;58.708;50.190;2022-11-04T06:06:13;13.05;;;7.10;;
54121;SDS011;40029;58.708;50.190;2022-11-04T06:08:44;11.65;;;6.72;;
54121;SDS011;40029;58.708;50.190;2022-11-04T06:11:15;7.88;;;4.68;;
54121;SDS011;40029;58.708;50.190;2022-11-04T06:13:47;16.70;;;8.23;;
54121;SDS011;40029;58.708;50.190;2022-11-04T06:16:19;12.57;;;6.30;;
54121;SDS011;40029;58.708;50.190;2022-11-04T06:18:50;12.75;;;6.20;;
54121;SDS011;40029;58.708;50.190;2022-11-04T06:21:29;10.98;;;6.05;;
54121;SDS011;40029;58.708;50.190;2022-11-04T06:24:01;11.05;;;5.38;;
54121;SDS011;40029;58.708;50.190;2022-11-04T06:26:32;10.98;;;5.80;;
54121;SDS011;40029;58.708;50.190;2022-11-04T06:29:03;15.55;;;5.93;;
54121;SDS011;40029;58.708;50.190;2022-11-04T06:31:34;13.07;;;5.65;;
54121;SDS011;40029;58.708;50.190;2022-11-04T06:34:05;13.13;;;6.55;;
54121;SDS011;40029;58.708;50.190;2022-11-04T06:36:36;13.15;;;6.97;;
54121;SDS011;40029;58.708;50.190;2022-11-04T06:39:07;11.05;;;5.93;;
54121;SDS011;40029;58.708;50.190;2022-11-04T06:41:38;10.57;;;5.60;;
54121;SDS011;40029;58.708;50.190;2022-11-04T06:44:10;38.10;;;12.38;;
54121;SDS011;40029;58.708;50.190;2022-11-04T06:46:41;11.48;;;6.20;;
54121;SDS011;40029;58.708;50.190;2022-11-04T06:49:14;12.52;;;6.80;;
54121;SDS011;40029;58.708;50.190;2022-11-04T06:51:49;11.85;;;5.80;;
54121;SDS011;40029;58.708;50.190;2022-11-04T06:54:21;12.45;;;5.78;;
54121;SDS011;40029;58.708;50.190;2022-11-04T06:56:52;11.13;;;6.53;;
54121;SDS011;40029;58.708;50.190;2022-11-04T06:59:23;17.95;;;8.93;;
54121;SDS011;40029;58.708;50.190;2022-11-04T07:01:54;18.08;;;8.68;;
54121;SDS011;40029;58.708;50.190;2022-11-04T07:04:25;26.38;;;7.97;;
54121;SDS011;40029;58.708;50.190;2022-11-04T07:06:56;8.52;;;5.15;;
54121;SDS011;40029;58.708;50.190;2022-11-04T07:09:27;10.63;;;6.03;;
54121;SDS011;40029;58.708;50.190;2022-11-04T07:11:58;12.90;;;6.00;;
54121;SDS011;40029;58.708;50.190;2022-11-04T07:14:29;17.10;;;6.35;;
54121;SDS011;40029;58.708;50.190;2022-11-04T07:17:00;14.70;;;6.80;;
54121;SDS011;40029;58.708;50.190;2022-11-04T07:19:31;15.15;;;7.85;;
54121;SDS011;40029;58.708;50.190;2022-11-04T07:22:02;12.38;;;5.78;;
54121;SDS011;40029;58.708;50.190;2022-11-04T07:24:33;10.85;;;5.22;;
54121;SDS011;40029;58.708;50.190;2022-11-04T07:27:05;16.85;;;8.15;;
54121;SDS011;40029;58.708;50.190;2022-11-04T07:29:37;16.27;;;6.70;;
54121;SDS011;40029;58.708;50.190;2022-11-04T07:32:08;12.18;;;6.47;;
54121;SDS011;40029;58.708;50.190;2022-11-04T07:34:39;19.80;;;8.48;;
54121;SDS011;40029;58.708;50.190;2022-11-04T07:37:10;22.58;;;10.13;;
54121;SDS011;40029;58.708;50.190;2022-11-04T07:39:41;19.65;;;8.95;;
54121;SDS011;40029;58.708;50.190;2022-11-04T07:42:12;24.35;;;11.73;;
54121;SDS011;40029;58.708;50.190;2022-11-04T07:44:43;20.55;;;11.20;;
54121;SDS011;40029;58.708;50.190;2022-11-04T07:47:14;28.85;;;12.80;;
54121;SDS011;40029;58.708;50.190;2022-11-04T07:49:45;21.15;;;11.30;;
54121;SDS011;40029;58.708;50.190;2022-11-04T07:52:17;23.63;;;11.48;;
54121;SDS011;40029;58.708;50.190;2022-11-04T07:54:48;23.23;;;10.77;;
54121;SDS011;40029;58.708;50.190;2022-11-04T07:57:20;21.45;;;9.95;;
54121;SDS011;40029;58.708;50.190;2022-11-04T07:59:51;20.63;;;8.73;;
54121;SDS011;40029;58.708;50.190;2022-11-04T08:02:22;23.85;;;11.88;;
54121;SDS011;40029;58.708;50.190;2022-11-04T08:04:53;24.13;;;10.60;;
54121;SDS011;40029;58.708;50.190;2022-11-04T08:07:24;25.25;;;9.93;;
54121;SDS011;40029;58.708;50.190;2022-11-04T08:09:55;26.20;;;12.15;;
54121;SDS011;40029;58.708;50.190;2022-11-04T08:12:26;23.52;;;11.23;;
54121;SDS011;40029;58.708;50.190;2022-11-04T08:14:58;30.55;;;12.10;;
54121;SDS011;40029;58.708;50.190;2022-11-04T08:17:29;19.13;;;8.82;;
54121;SDS011;40029;58.708;50.190;2022-11-04T08:20:00;25.83;;;10.90;;
54121;SDS011;40029;58.708;50.190;2022-11-04T08:22:31;25.05;;;12.48;;
54121;SDS011;40029;58.708;50.190;2022-11-04T08:25:04;41.10;;;14.25;;
54121;SDS011;40029;58.708;50.190;2022-11-04T08:27:35;37.17;;;15.75;;
54121;SDS011;40029;58.708;50.190;2022-11-04T08:30:06;36.22;;;16.23;;
54121;SDS011;40029;58.708;50.190;2022-11-04T08:32:38;42.08;;;19.42;;
54121;SDS011;40029;58.708;50.190;2022-11-04T08:35:09;35.72;;;16.58;;
54121;SDS011;40029;58.708;50.190;2022-11-04T08:37:44;30.02;;;15.63;;
54121;SDS011;40029;58.708;50.190;2022-11-04T08:40:15;32.85;;;16.65;;
54121;SDS011;40029;58.708;50.190;2022-11-04T08:42:46;26.27;;;13.43;;
54121;SDS011;40029;58.708;50.190;2022-11-04T08:45:17;33.17;;;15.00;;
54121;SDS011;40029;58.708;50.190;2022-11-04T08:47:48;34.67;;;16.95;;
54121;SDS011;40029;58.708;50.190;2022-11-04T08:50:19;28.58;;;14.98;;
54121;SDS011;40029;58.708;50.190;2022-11-04T08:52:51;28.40;;;15.60;;
54121;SDS011;40029;58.708;50.190;2022-11-04T08:55:22;33.13;;;16.17;;
54121;SDS011;40029;58.708;50.190;2022-11-04T08:57:53;33.65;;;16.33;;
54121;SDS011;40029;58.708;50.190;2022-11-04T09:00:24;29.88;;;15.25;;
54121;SDS011;40029;58.708;50.190;2022-11-04T09:02:56;29.13;;;14.98;;
54121;SDS011;40029;58.708;50.190;2022-11-04T09:05:27;32.63;;;16.70;;
54121;SDS011;40029;58.708;50.190;2022-11-04T09:07:58;35.55;;;17.08;;
54121;SDS011;40029;58.708;50.190;2022-11-04T09:10:30;44.60;;;21.00;;
54121;SDS011;40029;58.708;50.190;2022-11-04T09:13:01;31.75;;;15.75;;
54121;SDS011;40029;58.708;50.190;2022-11-04T09:15:32;24.40;;;12.25;;
54121;SDS011;40029;58.708;50.190;2022-11-04T09:18:03;31.25;;;15.07;;
54121;SDS011;40029;58.708;50.190;2022-11-04T09:20:35;25.38;;;12.05;;
54121;SDS011;40029;58.708;50.190;2022-11-04T09:23:09;17.50;;;9.65;;
54121;SDS011;40029;58.708;50.190;2022-11-04T09:25:40;21.20;;;10.27;;
54121;SDS011;40029;58.708;50.190;2022-11-04T09:28:11;21.23;;;10.13;;
54121;SDS011;40029;58.708;50.190;2022-11-04T09:30:42;17.60;;;9.75;;
54121;SDS011;40029;58.708;50.190;2022-11-04T09:33:13;18.20;;;9.63;;
54121;SDS011;40029;58.708;50.190;2022-11-04T09:35:52;17.63;;;10.25;;
54121;SDS011;40029;58.708;50.190;2022-11-04T09:38:25;12.63;;;7.40;;
54121;SDS011;40029;58.708;50.190;2022-11-04T09:40:57;13.00;;;7.45;;
54121;SDS011;40029;58.708;50.190;2022-11-04T09:43:51;15.75;;;9.10;;
54121;SDS011;40029;58.708;50.190;2022-11-04T09:46:31;16.67;;;8.38;;
54121;SDS011;40029;58.708;50.190;2022-11-04T09:49:06;18.63;;;9.27;;
54121;SDS011;40029;58.708;50.190;2022-11-04T09:51:40;19.05;;;9.20;;
54121;SDS011;40029;58.708;50.190;2022-11-04T09:56:50;19.27;;;11.20;;
54121;SDS011;40029;58.708;50.190;2022-11-04T09:59:25;19.42;;;10.82;;
54121;SDS011;40029;58.708;50.190;2022-11-04T10:07:44;17.25;;;9.82;;
54121;SDS011;40029;58.708;50.190;2022-11-04T10:10:42;12.40;;;7.43;;
54121;SDS011;40029;58.708;50.190;2022-11-04T10:16:31;10.85;;;6.13;;
54121;SDS011;40029;58.708;50.190;2022-11-04T10:19:56;19.15;;;9.55;;
54121;SDS011;40029;58.708;50.190;2022-11-04T10:22:36;15.30;;;7.22;;
54121;SDS011;40029;58.708;50.190;2022-11-04T10:25:20;13.35;;;7.13;;
54121;SDS011;40029;58.708;50.190;2022-11-04T10:27:54;10.18;;;5.25;;
54121;SDS011;40029;58.708;50.190;2022-11-04T10:30:27;6.57;;;4.13;;
54121;SDS011;40029;58.708;50.190;2022-11-04T10:33:14;12.02;;;5.47;;
54121;SDS011;40029;58.708;50.190;2022-11-04T10:35:55;7.45;;;4.78;;
54121;SDS011;40029;58.708;50.190;2022-11-04T10:38:38;8.68;;;4.68;;
54121;SDS011;40029;58.708;50.190;2022-11-04T10:41:28;9.65;;;5.70;;
54121;SDS011;40029;58.708;50.190;2022-11-04T10:44:06;10.00;;;5.28;;
54121;SDS011;40029;58.708;50.190;2022-11-04T10:47:05;11.90;;;5.72;;
54121;SDS011;40029;58.708;50.190;2022-11-04T10:49:58;12.35;;;7.47;;
54121;SDS011;40029;58.708;50.190;2022-11-04T10:52:45;16.92;;;7.75;;
54121;SDS011;40029;58.708;50.190;2022-11-04T10:55:27;16.23;;;9.15;;
54121;SDS011;40029;58.708;50.190;2022-11-04T10:58:16;12.38;;;7.95;;
54121;SDS011;40029;58.708;50.190;2022-11-04T11:03:23;19.40;;;9.13;;
54121;SDS011;40029;58.708;50.190;2022-11-04T11:08:45;13.80;;;7.32;;
54121;SDS011;40029;58.708;50.190;2022-11-04T11:11:16;19.27;;;7.95;;
54121;SDS011;40029;58.708;50.190;2022-11-04T11:17:19;14.90;;;8.02;;
54121;SDS011;40029;58.708;50.190;2022-11-04T11:19:54;18.67;;;9.73;;
54121;SDS011;40029;58.708;50.190;2022-11-04T11:22:40;21.63;;;10.65;;
54121;SDS011;40029;58.708;50.190;2022-11-04T11:28:12;22.95;;;11.25;;
54121;SDS011;40029;58.708;50.190;2022-11-04T11:31:00;24.45;;;12.45;;
54121;SDS011;40029;58.708;50.190;2022-11-04T11:33:39;22.33;;;10.33;;
54121;SDS011;40029;58.708;50.190;2022-11-04T11:36:18;23.05;;;12.50;;
54121;SDS011;40029;58.708;50.190;2022-11-04T11:41:32;29.58;;;13.35;;
54121;SDS011;40029;58.708;50.190;2022-11-04T11:44:18;38.78;;;16.92;;
54121;SDS011;40029;58.708;50.190;2022-11-04T11:46:55;31.30;;;14.80;;
54121;SDS011;40029;58.708;50.190;2022-11-04T11:49:32;69.10;;;22.60;;
54121;SDS011;40029;58.708;50.190;2022-11-04T11:55:24;48.38;;;18.70;;
54121;SDS011;40029;58.708;50.190;2022-11-04T11:58:00;55.80;;;22.92;;
54121;SDS011;40029;58.708;50.190;2022-11-04T12:00:42;35.50;;;15.27;;
54121;SDS011;40029;58.708;50.190;2022-11-04T12:03:22;29.60;;;15.70;;
54121;SDS011;40029;58.708;50.190;2022-11-04T12:06:31;31.98;;;15.90;;
54121;SDS011;40029;58.708;50.190;2022-11-04T12:17:51;35.95;;;15.75;;
54121;SDS011;40029;58.708;50.190;2022-11-04T12:20:59;36.75;;;16.08;;
54121;SDS011;40029;58.708;50.190;2022-11-04T12:23:45;39.23;;;18.80;;
54121;SDS011;40029;58.708;50.190;2022-11-04T12:38:40;62.33;;;28.52;;
54121;SDS011;40029;58.708;50.190;2022-11-04T12:41:14;63.38;;;28.75;;
54121;SDS011;40029;58.708;50.190;2022-11-04T12:49:43;55.72;;;24.15;;
54121;SDS011;40029;58.708;50.190;2022-11-04T12:53:05;47.70;;;22.83;;
54121;SDS011;40029;58.708;50.190;2022-11-04T12:55:31;34.53;;;16.52;;
54121;SDS011;40029;58.708;50.190;2022-11-04T13:01:06;26.95;;;14.00;;
54121;SDS011;40029;58.708;50.190;2022-11-04T13:07:04;37.47;;;16.48;;
54121;SDS011;40029;58.708;50.190;2022-11-04T13:09:43;35.45;;;16.98;;
54121;SDS011;40029;58.708;50.190;2022-11-04T13:12:20;36.75;;;17.10;;
54121;SDS011;40029;58.708;50.190;2022-11-04T13:14:59;41.40;;;16.65;;
54121;SDS011;40029;58.708;50.190;2022-11-04T13:17:53;40.00;;;16.92;;
54121;SDS011;40029;58.708;50.190;2022-11-04T13:20:31;40.40;;;16.20;;
54121;SDS011;40029;58.708;50.190;2022-11-04T13:23:33;37.83;;;17.35;;
54121;SDS011;40029;58.708;50.190;2022-11-04T13:26:10;47.60;;;18.63;;
54121;SDS011;40029;58.708;50.190;2022-11-04T13:28:45;43.90;;;18.92;;
54121;SDS011;40029;58.708;50.190;2022-11-04T13:34:08;51.55;;;20.17;;
54121;SDS011;40029;58.708;50.190;2022-11-04T13:39:28;43.67;;;19.48;;
54121;SDS011;40029;58.708;50.190;2022-11-04T13:45:17;40.83;;;16.13;;
54121;SDS011;40029;58.708;50.190;2022-11-04T13:47:50;41.42;;;18.27;;
54121;SDS011;40029;58.708;50.190;2022-11-04T13:52:58;35.65;;;16.13;;
54121;SDS011;40029;58.708;50.190;2022-11-04T13:55:29;35.90;;;14.45;;
54121;SDS011;40029;58.708;50.190;2022-11-04T13:58:05;33.63;;;15.02;;
54121;SDS011;40029;58.708;50.190;2022-11-04T14:00:37;37.08;;;16.17;;
54121;SDS011;40029;58.708;50.190;2022-11-04T14:03:49;39.03;;;15.98;;
54121;SDS011;40029;58.708;50.190;2022-11-04T14:06:06;38.00;;;17.00;;
54121;SDS011;40029;58.708;50.190;2022-11-04T14:08:38;45.13;;;19.83;;
54121;SDS011;40029;58.708;50.190;2022-11-04T14:14:40;52.47;;;19.58;;
54121;SDS011;40029;58.708;50.190;2022-11-04T14:20:10;35.85;;;15.05;;
54121;SDS011;40029;58.708;50.190;2022-11-04T14:22:56;35.33;;;15.63;;
54121;SDS011;40029;58.708;50.190;2022-11-04T14:25:33;34.33;;;15.07;;
54121;SDS011;40029;58.708;50.190;2022-11-04T14:30:48;30.15;;;11.80;;
54121;SDS011;40029;58.708;50.190;2022-11-04T14:39:19;32.72;;;15.15;;
54121;SDS011;40029;58.708;50.190;2022-11-04T14:41:54;30.38;;;13.40;;
54121;SDS011;40029;58.708;50.190;2022-11-04T14:47:14;36.28;;;14.85;;
54121;SDS011;40029;58.708;50.190;2022-11-04T14:55:22;45.58;;;17.65;;
54121;SDS011;40029;58.708;50.190;2022-11-04T14:58:18;38.95;;;14.82;;
54121;SDS011;40029;58.708;50.190;2022-11-04T15:00:54;35.58;;;12.30;;
54121;SDS011;40029;58.708;50.190;2022-11-04T15:03:33;28.08;;;12.10;;
54121;SDS011;40029;58.708;50.190;2022-11-04T15:11:16;18.80;;;8.90;;
54121;SDS011;40029;58.708;50.190;2022-11-04T15:16:52;14.63;;;8.07;;
54121;SDS011;40029;58.708;50.190;2022-11-04T15:22:04;15.30;;;7.20;;
54121;SDS011;40029;58.708;50.190;2022-11-04T15:24:36;14.07;;;7.15;;
54121;SDS011;40029;58.708;50.190;2022-11-04T15:27:15;11.45;;;5.30;;
54121;SDS011;40029;58.708;50.190;2022-11-04T15:29:54;14.52;;;7.25;;
54121;SDS011;40029;58.708;50.190;2022-11-04T15:32:30;14.85;;;6.90;;
54121;SDS011;40029;58.708;50.190;2022-11-04T15:35:01;22.83;;;9.18;;
54121;SDS011;40029;58.708;50.190;2022-11-04T15:37:33;20.35;;;9.70;;
54121;SDS011;40029;58.708;50.190;2022-11-04T15:40:07;21.45;;;9.23;;
54121;SDS011;40029;58.708;50.190;2022-11-04T15:42:43;24.30;;;9.32;;
54121;SDS011;40029;58.708;50.190;2022-11-04T15:59:13;16.52;;;7.90;;
54121;SDS011;40029;58.708;50.190;2022-11-04T16:01:48;13.93;;;6.53;;
54121;SDS011;40029;58.708;50.190;2022-11-04T16:04:22;19.10;;;7.97;;
54121;SDS011;40029;58.708;50.190;2022-11-04T16:09:47;13.73;;;6.32;;
54121;SDS011;40029;58.708;50.190;2022-11-04T16:12:28;15.48;;;7.22;;
54121;SDS011;40029;58.708;50.190;2022-11-04T16:15:05;14.95;;;7.90;;
54121;SDS011;40029;58.708;50.190;2022-11-04T16:17:56;11.48;;;6.00;;
54121;SDS011;40029;58.708;50.190;2022-11-04T16:20:27;11.27;;;5.82;;
54121;SDS011;40029;58.708;50.190;2022-11-04T16:23:01;10.25;;;5.30;;
54121;SDS011;40029;58.708;50.190;2022-11-04T16:25:33;23.42;;;13.68;;
54121;SDS011;40029;58.708;50.190;2022-11-04T16:28:05;22.85;;;14.45;;
54121;SDS011;40029;58.708;50.190;2022-11-04T16:30:55;32.75;;;16.98;;
54121;SDS011;40029;58.708;50.190;2022-11-04T16:33:27;43.25;;;18.08;;
54121;SDS011;40029;58.708;50.190;2022-11-04T16:35:58;57.70;;;22.83;;
54121;SDS011;40029;58.708;50.190;2022-11-04T16:38:30;57.35;;;23.23;;
54121;SDS011;40029;58.708;50.190;2022-11-04T16:41:01;28.55;;;12.07;;
54121;SDS011;40029;58.708;50.190;2022-11-04T16:43:32;29.63;;;12.68;;
54121;SDS011;40029;58.708;50.190;2022-11-04T16:46:03;29.10;;;13.07;;
54121;SDS011;40029;58.708;50.190;2022-11-04T16:48:34;27.45;;;13.00;;
54121;SDS011;40029;58.708;50.190;2022-11-04T16:51:05;21.17;;;11.27;;
54121;SDS011;40029;58.708;50.190;2022-11-04T16:53:36;17.95;;;8.82;;
54121;SDS011;40029;58.708;50.190;2022-11-04T16:56:07;13.48;;;7.68;;
54121;SDS011;40029;58.708;50.190;2022-11-04T16:58:39;15.05;;;8.23;;
54121;SDS011;40029;58.708;50.190;2022-11-04T17:01:10;9.88;;;6.15;;
54121;SDS011;40029;58.708;50.190;2022-11-04T17:03:45;9.32;;;5.72;;
54121;SDS011;40029;58.708;50.190;2022-11-04T17:06:16;18.95;;;8.70;;
54121;SDS011;40029;58.708;50.190;2022-11-04T17:08:48;11.50;;;6.25;;
54121;SDS011;40029;58.708;50.190;2022-11-04T17:11:19;8.90;;;5.28;;
54121;SDS011;40029;58.708;50.190;2022-11-04T17:13:50;10.43;;;6.43;;
54121;SDS011;40029;58.708;50.190;2022-11-04T17:16:21;9.73;;;4.78;;
54121;SDS011;40029;58.708;50.190;2022-11-04T17:18:52;14.65;;;6.55;;
54121;SDS011;40029;58.708;50.190;2022-11-04T17:21:23;10.93;;;5.78;;
54121;SDS011;40029;58.708;50.190;2022-11-04T17:23:55;9.65;;;4.80;;
54121;SDS011;40029;58.708;50.190;2022-11-04T17:26:26;7.35;;;4.22;;
54121;SDS011;40029;58.708;50.190;2022-11-04T17:28:57;8.32;;;4.40;;
54121;SDS011;40029;58.708;50.190;2022-11-04T17:31:29;15.90;;;8.98;;
54121;SDS011;40029;58.708;50.190;2022-11-04T17:34:00;17.75;;;9.65;;
54121;SDS011;40029;58.708;50.190;2022-11-04T17:36:34;12.33;;;6.10;;
54121;SDS011;40029;58.708;50.190;2022-11-04T17:39:06;9.98;;;6.05;;
54121;SDS011;40029;58.708;50.190;2022-11-04T17:41:37;11.10;;;4.88;;
54121;SDS011;40029;58.708;50.190;2022-11-04T17:44:26;14.38;;;6.85;;
54121;SDS011;40029;58.708;50.190;2022-11-04T17:46:57;20.15;;;8.48;;
54121;SDS011;40029;58.708;50.190;2022-11-04T17:49:30;55.63;;;20.23;;
54121;SDS011;40029;58.708;50.190;2022-11-04T17:52:05;24.50;;;11.05;;
54121;SDS011;40029;58.708;50.190;2022-11-04T17:54:37;30.63;;;12.13;;
54121;SDS011;40029;58.708;50.190;2022-11-04T17:57:08;16.92;;;8.85;;
54121;SDS011;40029;58.708;50.190;2022-11-04T17:59:40;19.13;;;8.88;;
54121;SDS011;40029;58.708;50.190;2022-11-04T18:02:12;13.40;;;7.03;;
54121;SDS011;40029;58.708;50.190;2022-11-04T18:04:43;10.05;;;4.50;;
54121;SDS011;40029;58.708;50.190;2022-11-04T18:07:15;10.70;;;5.00;;